Time;durP1;ratioP1;P1;durP2;ratioP2;P2;SDS_P1;SDS_P2;PMS_P1;PMS_P2;Temp;Humidity;BMP_temperature;BMP_pressure;BME280_temperature;BME280_humidity;BME280_pressure;Samples;Min_cycle;Max_cycle;Signal;HPM_P1;HPM_P2
2024/02/29 00:00:11;;;;;;;12.02;4.93;;;32.00;63.90;;;;;;5050711;28;20622;-75
2024/02/29 00:02:42;;;;;;;10.88;5.20;;;32.20;63.90;;;;;;5048020;28;20180;-75
2024/02/29 00:05:11;;;;;;;11.93;4.30;;;32.40;63.80;;;;;;5044994;28;20182;-75
2024/02/29 00:07:41;;;;;;;17.20;5.05;;;32.30;62.70;;;;;;5048374;28;20184;-75
2024/02/29 00:10:09;;;;;;;16.33;5.43;;;32.40;63.00;;;;;;5035645;28;20212;-75
2024/02/29 00:12:36;;;;;;;14.68;4.35;;;32.50;62.60;;;;;;5047478;28;20184;-76
2024/02/29 00:15:04;;;;;;;15.85;4.70;;;32.70;62.40;;;;;;5051209;28;20181;-76
2024/02/29 00:17:31;;;;;;;11.60;5.10;;;32.60;63.00;;;;;;5049863;28;20183;-78
2024/02/29 00:19:59;;;;;;;12.35;5.72;;;32.80;62.50;;;;;;5049875;28;20181;-78
2024/02/29 00:22:27;;;;;;;8.80;4.40;;;32.90;62.00;;;;;;5033214;28;20221;-75
2024/02/29 00:24:55;;;;;;;11.48;5.80;;;33.10;62.20;;;;;;5048205;28;20275;-75
2024/02/29 00:27:26;;;;;;;14.10;5.53;;;33.30;61.30;;;;;;5050530;28;20171;-76
2024/02/29 00:29:53;;;;;;;13.32;5.20;;;33.40;60.80;;;;;;5050770;28;20223;-74
2024/02/29 00:32:20;;;;;;;14.88;5.38;;;33.10;61.70;;;;;;5047849;28;20188;-77
2024/02/29 00:34:53;;;;;;;14.40;4.93;;;33.10;61.60;;;;;;5042988;28;20237;-76
2024/02/29 00:37:21;;;;;;;13.38;5.10;;;33.20;62.20;;;;;;5048570;28;20258;-75
2024/02/29 00:39:49;;;;;;;12.60;5.63;;;33.40;61.00;;;;;;5047258;28;20207;-74
2024/02/29 00:42:16;;;;;;;14.52;5.70;;;33.50;60.90;;;;;;5050528;28;20172;-74
2024/02/29 00:44:43;;;;;;;23.45;6.07;;;33.60;61.10;;;;;;5048031;28;20268;-74
2024/02/29 00:47:12;;;;;;;23.40;5.85;;;33.40;61.20;;;;;;5048400;28;20172;-75
2024/02/29 00:49:39;;;;;;;19.58;5.18;;;33.30;61.40;;;;;;5044932;28;20353;-76
2024/02/29 00:52:07;;;;;;;15.43;5.63;;;33.40;62.10;;;;;;5048143;28;20168;-75
2024/02/29 00:54:35;;;;;;;18.58;5.32;;;33.10;61.30;;;;;;5041339;28;20184;-74
2024/02/29 00:57:05;;;;;;;17.58;5.45;;;33.30;62.10;;;;;;5049774;28;20203;-76
2024/02/29 00:59:34;;;;;;;11.30;5.20;;;33.10;62.30;;;;;;5050103;28;20187;-74
2024/02/29 01:02:03;;;;;;;17.90;6.00;;;33.10;62.70;;;;;;5050125;28;20210;-75
2024/02/29 01:04:30;;;;;;;18.75;5.63;;;33.50;61.40;;;;;;5048363;28;20184;-75
2024/02/29 01:06:58;;;;;;;13.05;5.22;;;33.80;60.50;;;;;;5047123;28;21400;-77
2024/02/29 01:09:27;;;;;;;14.25;4.90;;;33.70;60.40;;;;;;5047159;28;20239;-76
2024/02/29 01:11:55;;;;;;;19.55;5.47;;;34.00;59.20;;;;;;5044254;28;20176;-76
2024/02/29 01:14:22;;;;;;;12.07;5.13;;;33.60;60.70;;;;;;5038337;28;20184;-77
2024/02/29 01:16:51;;;;;;;20.42;4.90;;;33.80;59.20;;;;;;5047095;28;20197;-78
2024/02/29 01:19:18;;;;;;;13.10;4.70;;;34.10;58.80;;;;;;5048317;28;20182;-77
2024/02/29 01:21:45;;;;;;;11.73;4.25;;;34.40;58.00;;;;;;5044513;28;20263;-76
2024/02/29 01:24:13;;;;;;;14.75;4.88;;;34.70;57.50;;;;;;5042534;28;20207;-75
2024/02/29 01:26:40;;;;;;;12.27;4.20;;;34.90;56.70;;;;;;5045049;28;20188;-77
2024/02/29 01:29:10;;;;;;;14.13;5.10;;;34.80;57.00;;;;;;5042377;28;20237;-75
2024/02/29 01:31:38;;;;;;;14.35;4.90;;;35.00;55.90;;;;;;5047545;28;20273;-77
2024/02/29 01:34:06;;;;;;;14.27;5.10;;;35.20;55.70;;;;;;5044538;28;20180;-75
2024/02/29 01:36:33;;;;;;;20.40;6.60;;;35.30;55.80;;;;;;5040938;28;20230;-76
2024/02/29 01:39:03;;;;;;;18.15;6.47;;;35.40;56.80;;;;;;5044848;28;20208;-75
2024/02/29 01:41:30;;;;;;;16.33;6.80;;;35.60;56.70;;;;;;5031898;28;20184;-74
2024/02/29 01:43:57;;;;;;;15.88;5.50;;;35.30;57.20;;;;;;5030864;28;20193;-76
2024/02/29 01:46:30;;;;;;;16.33;6.97;;;35.10;56.60;;;;;;5046354;28;20669;-74
2024/02/29 01:48:58;;;;;;;18.17;5.72;;;34.90;57.90;;;;;;5040445;28;20250;-78
2024/02/29 01:51:28;;;;;;;18.02;5.93;;;35.20;55.60;;;;;;5047176;28;22026;-76
2024/02/29 01:53:58;;;;;;;15.18;6.28;;;35.60;55.70;;;;;;5039563;28;20175;-75
2024/02/29 01:56:26;;;;;;;14.32;5.68;;;35.90;54.70;;;;;;5044043;28;20656;-75
2024/02/29 01:58:58;;;;;;;21.27;6.15;;;35.90;54.50;;;;;;5046209;28;20714;-76
2024/02/29 02:01:28;;;;;;;17.58;5.47;;;36.10;54.80;;;;;;5046824;28;20252;-77
2024/02/29 02:03:56;;;;;;;17.15;6.82;;;35.80;54.60;;;;;;5042435;28;20192;-75
2024/02/29 02:06:23;;;;;;;20.92;6.30;;;35.90;54.90;;;;;;5046093;28;20198;-78
2024/02/29 02:08:53;;;;;;;18.60;6.70;;;35.90;54.20;;;;;;5045548;28;20204;-76
2024/02/29 02:11:21;;;;;;;15.77;5.25;;;36.10;53.30;;;;;;5032913;28;20325;-74
2024/02/29 02:13:48;;;;;;;20.00;6.82;;;36.20;52.30;;;;;;5038931;28;20176;-74
2024/02/29 02:16:16;;;;;;;30.25;8.13;;;36.60;52.90;;;;;;5043454;28;20192;-75
2024/02/29 02:18:43;;;;;;;20.20;7.10;;;36.50;53.20;;;;;;5043733;28;20676;-75
2024/02/29 02:21:10;;;;;;;22.17;7.03;;;36.30;53.90;;;;;;5043279;28;20229;-76
2024/02/29 02:23:41;;;;;;;20.35;6.05;;;35.80;54.80;;;;;;5047734;28;20258;-74
2024/02/29 02:26:08;;;;;;;22.40;6.18;;;35.80;54.60;;;;;;5041550;28;20180;-78
2024/02/29 02:28:35;;;;;;;13.60;5.63;;;36.20;53.90;;;;;;5046541;28;20719;-75
2024/02/29 02:31:03;;;;;;;15.55;5.88;;;36.10;53.30;;;;;;5043815;28;20232;-74
2024/02/29 02:33:31;;;;;;;17.00;6.10;;;35.60;54.70;;;;;;5045775;28;20286;-74
2024/02/29 02:35:58;;;;;;;13.88;5.28;;;35.80;54.80;;;;;;5015687;28;20192;-74
2024/02/29 02:38:26;;;;;;;16.10;4.70;;;36.00;53.50;;;;;;5043402;28;20266;-75
2024/02/29 02:40:54;;;;;;;14.93;5.38;;;35.90;54.10;;;;;;5044510;28;20196;-74
2024/02/29 02:43:21;;;;;;;18.15;5.78;;;36.00;54.00;;;;;;5025882;28;20184;-81
2024/02/29 02:45:48;;;;;;;18.30;5.32;;;35.70;54.50;;;;;;5039001;28;20700;-74
2024/02/29 02:48:15;;;;;;;17.77;6.13;;;35.30;55.50;;;;;;5042617;28;21058;-77
2024/02/29 02:50:43;;;;;;;10.52;4.20;;;36.10;54.30;;;;;;5042111;28;20215;-75
2024/02/29 02:53:10;;;;;;;15.35;5.35;;;36.70;52.90;;;;;;5045596;28;20185;-74
2024/02/29 02:55:38;;;;;;;15.77;5.00;;;36.80;52.20;;;;;;5046186;28;20270;-76
2024/02/29 02:58:07;;;;;;;16.70;5.70;;;36.70;52.30;;;;;;5042947;28;20183;-77
2024/02/29 03:00:34;;;;;;;13.57;5.10;;;36.40;52.90;;;;;;5044577;28;20180;-75
2024/02/29 03:03:02;;;;;;;17.65;5.05;;;36.70;51.90;;;;;;5045803;28;20193;-77
2024/02/29 03:05:29;;;;;;;16.17;5.45;;;36.40;52.20;;;;;;5045832;28;20242;-78
2024/02/29 03:07:59;;;;;;;17.35;6.07;;;36.30;52.60;;;;;;5049909;28;20184;-76
2024/02/29 03:10:27;;;;;;;19.42;5.68;;;36.30;52.60;;;;;;5046308;28;20208;-79
2024/02/29 03:12:54;;;;;;;11.65;4.30;;;36.10;52.90;;;;;;5049772;28;20188;-79
2024/02/29 03:15:21;;;;;;;16.40;5.15;;;36.40;52.20;;;;;;5045200;28;20193;-74
2024/02/29 03:17:49;;;;;;;14.73;5.13;;;36.10;52.60;;;;;;5045092;28;20184;-78
2024/02/29 03:20:16;;;;;;;15.70;5.45;;;36.10;53.10;;;;;;5042917;28;20187;-80
2024/02/29 03:22:45;;;;;;;17.17;5.28;;;35.90;52.60;;;;;;5047962;28;20654;-75
2024/02/29 03:25:12;;;;;;;23.10;4.97;;;36.00;53.50;;;;;;5046743;28;20325;-74
2024/02/29 03:27:40;;;;;;;19.48;5.85;;;36.30;52.40;;;;;;5045931;28;20267;-80
2024/02/29 03:30:08;;;;;;;15.15;5.13;;;36.10;53.50;;;;;;5047011;28;20263;-74
2024/02/29 03:32:36;;;;;;;21.13;5.53;;;36.60;52.50;;;;;;5048768;28;20263;-80
2024/02/29 03:35:07;;;;;;;15.75;4.57;;;36.80;52.00;;;;;;5048732;28;20238;-76
2024/02/29 03:37:35;;;;;;;16.15;5.13;;;37.40;50.90;;;;;;5045747;28;20273;-77
2024/02/29 03:40:03;;;;;;;15.02;5.78;;;37.40;50.40;;;;;;5048159;28;20202;-78
2024/02/29 03:42:32;;;;;;;15.45;5.35;;;37.30;51.10;;;;;;5045313;28;20187;-76
2024/02/29 03:45:02;;;;;;;15.82;5.88;;;37.60;50.70;;;;;;5047854;28;20184;-79
2024/02/29 03:47:35;;;;;;;17.45;5.80;;;37.70;49.70;;;;;;5046032;28;20254;-77
2024/02/29 03:50:04;;;;;;;20.08;5.47;;;37.00;51.40;;;;;;5046674;28;20224;-77
2024/02/29 03:52:31;;;;;;;19.00;5.18;;;36.30;53.20;;;;;;5044597;28;20185;-75
2024/02/29 03:54:58;;;;;;;17.02;4.30;;;36.10;53.50;;;;;;5046129;28;20199;-77
2024/02/29 03:57:27;;;;;;;16.33;5.05;;;36.70;52.30;;;;;;5047757;28;20245;-77
2024/02/29 03:59:54;;;;;;;14.27;5.03;;;36.90;51.20;;;;;;5046092;28;20247;-77
2024/02/29 04:02:23;;;;;;;22.88;5.28;;;36.10;53.20;;;;;;5047878;28;20539;-75
2024/02/29 04:04:51;;;;;;;18.08;4.97;;;35.90;54.20;;;;;;5042829;28;20197;-78
2024/02/29 04:07:18;;;;;;;21.05;5.05;;;35.50;54.60;;;;;;5045526;28;20183;-76
2024/02/29 04:09:46;;;;;;;16.27;4.63;;;35.50;54.70;;;;;;5041823;28;20230;-77
2024/02/29 04:12:13;;;;;;;13.38;4.68;;;35.50;55.30;;;;;;5047849;28;20184;-74
2024/02/29 04:14:43;;;;;;;16.98;4.90;;;36.00;53.90;;;;;;5045339;28;20565;-76
2024/02/29 04:17:10;;;;;;;20.73;5.18;;;36.70;51.00;;;;;;5050725;28;20172;-76
2024/02/29 04:19:38;;;;;;;14.95;4.72;;;36.70;51.40;;;;;;5046747;28;20723;-76
2024/02/29 04:22:06;;;;;;;18.90;4.68;;;37.10;49.90;;;;;;5051371;28;20184;-73
2024/02/29 04:24:34;;;;;;;19.17;5.25;;;36.40;51.60;;;;;;5048146;28;20188;-78
2024/02/29 04:27:02;;;;;;;13.82;4.28;;;36.80;51.00;;;;;;5050913;28;20180;-75
2024/02/29 04:29:29;;;;;;;13.90;4.47;;;37.10;50.90;;;;;;5049467;28;20253;-73
2024/02/29 04:32:01;;;;;;;16.25;5.03;;;36.30;52.10;;;;;;5050378;28;20194;-75
2024/02/29 04:34:29;;;;;;;17.83;4.60;;;36.60;51.80;;;;;;5047553;28;20238;-75
2024/02/29 04:37:01;;;;;;;11.18;3.90;;;37.00;50.30;;;;;;5046453;28;20184;-73
2024/02/29 04:39:28;;;;;;;14.40;4.43;;;36.00;52.00;;;;;;5046134;28;20184;-75
2024/02/29 04:41:58;;;;;;;15.23;4.55;;;35.60;53.50;;;;;;5050851;28;20216;-74
2024/02/29 04:44:25;;;;;;;17.08;4.75;;;35.40;52.80;;;;;;5048035;28;20187;-75
2024/02/29 04:46:55;;;;;;;19.30;5.15;;;34.60;55.10;;;;;;5048591;28;20184;-74
2024/02/29 04:49:23;;;;;;;18.35;4.82;;;34.40;56.10;;;;;;5040077;28;20702;-75
2024/02/29 04:51:51;;;;;;;18.85;4.47;;;33.90;57.70;;;;;;5042665;28;20192;-74
2024/02/29 04:54:20;;;;;;;19.00;5.45;;;33.70;58.30;;;;;;5045582;28;20171;-72
2024/02/29 04:56:48;;;;;;;16.60;5.13;;;33.40;59.70;;;;;;5050730;28;20180;-74
2024/02/29 04:59:17;;;;;;;24.48;5.22;;;33.30;60.10;;;;;;5047516;28;20181;-75
2024/02/29 05:01:45;;;;;;;20.77;5.03;;;33.10;60.60;;;;;;5050582;28;20642;-75
2024/02/29 05:04:12;;;;;;;22.33;5.45;;;33.20;60.70;;;;;;5049748;28;20837;-77
2024/02/29 05:06:44;;;;;;;14.32;4.95;;;33.00;60.90;;;;;;5047538;28;20189;-74
2024/02/29 05:09:12;;;;;;;15.70;4.80;;;33.10;61.00;;;;;;5047514;28;20279;-74
2024/02/29 05:11:40;;;;;;;17.33;5.43;;;33.00;61.00;;;;;;5047475;28;20183;-77
2024/02/29 05:14:07;;;;;;;18.10;4.65;;;32.90;62.10;;;;;;5050380;28;20259;-75
2024/02/29 05:16:36;;;;;;;20.67;5.93;;;32.70;62.30;;;;;;5049655;28;20187;-73
2024/02/29 05:19:06;;;;;;;12.98;5.05;;;32.70;62.70;;;;;;5048018;28;20614;-76
2024/02/29 05:21:33;;;;;;;17.88;5.78;;;33.00;61.40;;;;;;5045084;28;20168;-74
2024/02/29 05:24:02;;;;;;;20.27;5.45;;;33.20;60.80;;;;;;5046141;28;20192;-74
2024/02/29 05:26:29;;;;;;;18.88;5.10;;;33.50;60.00;;;;;;5049319;28;20196;-74
2024/02/29 05:28:57;;;;;;;19.67;5.22;;;33.50;59.90;;;;;;5046479;28;20387;-75
2024/02/29 05:31:26;;;;;;;20.67;5.40;;;33.60;59.80;;;;;;5046853;28;20651;-73
2024/02/29 05:33:53;;;;;;;19.83;4.97;;;33.50;60.20;;;;;;5047486;28;20187;-75
2024/02/29 05:36:22;;;;;;;25.13;5.38;;;33.20;60.50;;;;;;5046552;28;20554;-74
2024/02/29 05:38:50;;;;;;;20.83;5.03;;;32.80;62.10;;;;;;5044144;28;20525;-74
2024/02/29 05:41:21;;;;;;;14.10;4.15;;;32.90;61.70;;;;;;5041048;28;20307;-73
2024/02/29 05:43:51;;;;;;;17.38;5.00;;;32.90;61.60;;;;;;5047161;28;20656;-76
2024/02/29 05:46:21;;;;;;;18.70;5.03;;;33.20;61.90;;;;;;5044752;28;20199;-75
2024/02/29 05:48:48;;;;;;;19.15;4.82;;;34.00;59.20;;;;;;5049086;28;20325;-73
2024/02/29 05:51:16;;;;;;;14.68;4.30;;;34.90;57.10;;;;;;5047132;28;20187;-78
2024/02/29 05:53:45;;;;;;;16.10;4.65;;;35.60;55.10;;;;;;5046291;28;20263;-76
2024/02/29 05:56:13;;;;;;;17.30;4.10;;;35.90;54.80;;;;;;5045576;28;20674;-74
2024/02/29 05:58:42;;;;;;;19.13;5.15;;;36.70;52.40;;;;;;5046119;28;20633;-76
2024/02/29 06:01:10;;;;;;;16.58;4.50;;;36.00;53.40;;;;;;5043265;28;20195;-74
2024/02/29 06:03:38;;;;;;;17.60;4.97;;;36.30;53.30;;;;;;5042089;28;20184;-76
2024/02/29 06:06:10;;;;;;;20.00;4.70;;;35.90;53.70;;;;;;5029784;28;20672;-74
2024/02/29 06:08:38;;;;;;;17.60;4.75;;;36.40;53.10;;;;;;5046094;28;20253;-76
2024/02/29 06:11:13;;;;;;;13.77;4.28;;;37.20;50.90;;;;;;5044178;28;20196;-75
2024/02/29 06:13:40;;;;;;;16.50;4.20;;;37.80;49.30;;;;;;5045284;28;20286;-74
2024/02/29 06:16:08;;;;;;;14.77;4.38;;;37.90;48.30;;;;;;5044872;28;20656;-75
2024/02/29 06:18:39;;;;;;;15.00;4.90;;;37.00;50.40;;;;;;5045655;28;20202;-76
2024/02/29 06:21:07;;;;;;;15.63;4.18;;;37.00;50.20;;;;;;5044950;28;20247;-75
2024/02/29 06:23:37;;;;;;;15.80;4.65;;;36.90;50.90;;;;;;5037643;28;20525;-76
2024/02/29 06:26:05;;;;;;;19.95;4.30;;;36.80;50.60;;;;;;5041686;28;20631;-74
2024/02/29 06:28:32;;;;;;;14.93;5.00;;;37.00;50.60;;;;;;5043448;28;20176;-75
2024/02/29 06:31:01;;;;;;;16.77;4.90;;;37.30;49.60;;;;;;5044602;28;20259;-76
2024/02/29 06:33:29;;;;;;;15.98;4.63;;;35.60;53.60;;;;;;5025433;28;20650;-76
2024/02/29 06:35:56;;;;;;;16.25;4.65;;;34.70;55.80;;;;;;5042067;28;20654;-75
2024/02/29 06:38:24;;;;;;;15.68;5.03;;;34.50;57.10;;;;;;5045988;28;20173;-74
2024/02/29 06:40:52;;;;;;;21.17;5.55;;;34.80;57.00;;;;;;5045915;28;20183;-75
2024/02/29 06:43:20;;;;;;;18.55;5.40;;;34.80;56.80;;;;;;5049603;28;20547;-75
2024/02/29 06:45:49;;;;;;;15.85;5.15;;;34.00;58.50;;;;;;5048273;28;20171;-75
2024/02/29 06:48:21;;;;;;;21.75;6.85;;;34.00;58.80;;;;;;5044598;28;20287;-76
2024/02/29 06:50:49;;;;;;;16.10;5.18;;;33.70;59.90;;;;;;5049735;28;20208;-75
2024/02/29 06:53:19;;;;;;;16.42;5.18;;;33.40;61.40;;;;;;5049233;28;20176;-75
2024/02/29 06:55:47;;;;;;;22.70;6.10;;;33.30;61.00;;;;;;5042963;28;20667;-74
2024/02/29 06:58:14;;;;;;;22.98;5.85;;;32.90;61.90;;;;;;5046362;28;20180;-75
2024/02/29 07:00:42;;;;;;;18.58;5.72;;;32.90;62.30;;;;;;5048989;28;20176;-74
2024/02/29 07:03:09;;;;;;;15.82;5.45;;;32.60;63.00;;;;;;5029554;28;20191;-75
2024/02/29 07:05:38;;;;;;;26.00;6.38;;;32.60;62.70;;;;;;5041427;28;20247;-74
2024/02/29 07:08:10;;;;;;;23.65;6.22;;;32.40;63.20;;;;;;5045190;28;20325;-76
2024/02/29 07:10:37;;;;;;;21.92;6.45;;;32.30;63.60;;;;;;5040194;28;20298;-75
2024/02/29 07:13:10;;;;;;;21.38;6.93;;;32.10;63.80;;;;;;5046747;28;20180;-75
2024/02/29 07:15:41;;;;;;;24.52;6.63;;;32.00;64.50;;;;;;5050046;28;20179;-74
2024/02/29 07:18:11;;;;;;;23.33;5.88;;;31.80;64.80;;;;;;5030181;28;20203;-76
2024/02/29 07:20:38;;;;;;;25.65;6.18;;;31.80;64.50;;;;;;5030713;28;20210;-76
2024/02/29 07:23:06;;;;;;;25.55;6.18;;;31.70;64.30;;;;;;5047846;28;20172;-74
2024/02/29 07:25:33;;;;;;;18.33;5.57;;;31.60;64.40;;;;;;5043140;28;20192;-75
2024/02/29 07:28:00;;;;;;;18.65;5.65;;;31.60;64.70;;;;;;5047757;28;20186;-76
2024/02/29 07:30:29;;;;;;;19.42;6.60;;;31.70;64.60;;;;;;5048577;28;20228;-74
2024/02/29 07:32:57;;;;;;;25.27;6.60;;;31.60;64.80;;;;;;5044855;28;20207;-75
2024/02/29 07:35:27;;;;;;;19.23;4.53;;;31.40;65.10;;;;;;5047122;28;20180;-74
2024/02/29 07:37:54;;;;;;;15.13;4.82;;;31.30;65.00;;;;;;5043681;28;20219;-75
2024/02/29 07:40:22;;;;;;;16.80;4.32;;;31.30;64.50;;;;;;5045134;28;20642;-77
2024/02/29 07:42:49;;;;;;;16.85;3.97;;;31.20;64.90;;;;;;5047317;28;20180;-75
2024/02/29 07:45:16;;;;;;;14.07;4.37;;;31.10;64.70;;;;;;5043597;28;20192;-74
2024/02/29 07:47:47;;;;;;;11.30;4.20;;;31.00;64.80;;;;;;5049885;28;20184;-76
2024/02/29 07:50:15;;;;;;;14.73;4.07;;;31.00;64.80;;;;;;5042560;28;20216;-75
2024/02/29 07:52:44;;;;;;;12.45;4.30;;;30.90;64.90;;;;;;5043491;28;20181;-75
2024/02/29 07:55:14;;;;;;;18.37;5.30;;;31.00;65.10;;;;;;5042563;28;20309;-76
2024/02/29 07:57:42;;;;;;;22.63;5.45;;;31.00;65.70;;;;;;5046496;28;20535;-74
2024/02/29 08:00:10;;;;;;;19.23;5.50;;;30.90;65.90;;;;;;5049487;28;20620;-74
2024/02/29 08:02:42;;;;;;;12.77;5.63;;;30.90;66.10;;;;;;5048730;28;20196;-75
2024/02/29 08:05:10;;;;;;;16.47;5.47;;;30.90;66.20;;;;;;5047141;28;20599;-75
2024/02/29 08:07:37;;;;;;;19.98;6.32;;;30.90;66.40;;;;;;5047309;28;20171;-74
2024/02/29 08:10:06;;;;;;;16.17;5.78;;;30.80;66.80;;;;;;5047592;28;20215;-74
2024/02/29 08:12:34;;;;;;;19.38;6.53;;;30.70;66.90;;;;;;5044903;28;20208;-75
2024/02/29 08:15:05;;;;;;;23.05;6.57;;;30.70;67.10;;;;;;5042820;28;20187;-74
2024/02/29 08:17:33;;;;;;;17.17;5.65;;;30.60;67.50;;;;;;5049504;28;20634;-74
2024/02/29 08:20:01;;;;;;;17.75;5.80;;;30.60;67.60;;;;;;5049598;28;20176;-74
2024/02/29 08:22:31;;;;;;;17.87;6.97;;;30.40;67.80;;;;;;5047928;28;20578;-74
2024/02/29 08:24:58;;;;;;;19.90;5.50;;;30.40;68.00;;;;;;5047137;28;20667;-79
2024/02/29 08:27:25;;;;;;;13.33;4.77;;;30.30;67.70;;;;;;5047030;28;20299;-78
2024/02/29 08:29:53;;;;;;;16.08;4.68;;;30.20;68.30;;;;;;5045500;28;20241;-75
2024/02/29 08:32:20;;;;;;;15.73;4.40;;;30.20;68.30;;;;;;5042588;28;20188;-75
2024/02/29 08:34:47;;;;;;;19.73;5.25;;;30.10;68.20;;;;;;5044847;28;20187;-77
2024/02/29 08:37:15;;;;;;;17.70;4.73;;;30.20;68.00;;;;;;5045765;28;20185;-74
2024/02/29 08:39:43;;;;;;;14.23;4.60;;;30.20;67.80;;;;;;5043533;28;20188;-76
2024/02/29 08:42:11;;;;;;;17.73;5.20;;;30.10;67.90;;;;;;5048883;28;20219;-76
2024/02/29 08:44:42;;;;;;;16.27;5.13;;;30.10;68.20;;;;;;5043293;28;20185;-75
2024/02/29 08:47:10;;;;;;;12.73;4.03;;;30.10;68.50;;;;;;5045437;28;20325;-74
2024/02/29 08:49:38;;;;;;;13.83;4.70;;;30.00;68.40;;;;;;5045127;28;20216;-74
2024/02/29 08:52:07;;;;;;;19.00;4.68;;;29.90;69.20;;;;;;5016558;28;20646;-76
2024/02/29 08:54:36;;;;;;;14.73;4.93;;;29.80;69.80;;;;;;5043321;28;20596;-75
2024/02/29 08:57:07;;;;;;;13.00;4.97;;;29.80;69.90;;;;;;5042377;28;20266;-76
2024/02/29 08:59:34;;;;;;;15.73;5.43;;;29.70;70.30;;;;;;5046351;28;20212;-74
2024/02/29 09:02:02;;;;;;;17.13;5.23;;;29.80;70.50;;;;;;5047674;28;20169;-76
2024/02/29 09:04:30;;;;;;;19.83;5.77;;;29.70;70.30;;;;;;5039061;28;20257;-74
2024/02/29 09:06:58;;;;;;;16.30;4.70;;;29.70;70.60;;;;;;5026966;28;20177;-75
2024/02/29 09:09:27;;;;;;;17.43;5.30;;;29.70;70.60;;;;;;5040904;28;20277;-76
2024/02/29 09:11:56;;;;;;;17.50;4.80;;;29.70;70.60;;;;;;5044813;28;20263;-74
2024/02/29 09:14:23;;;;;;;14.93;5.23;;;29.60;70.90;;;;;;5049450;28;20229;-75
2024/02/29 09:16:50;;;;;;;18.43;4.83;;;29.60;71.00;;;;;;5045119;28;20662;-74
2024/02/29 09:19:19;;;;;;;19.87;5.53;;;29.60;71.30;;;;;;5048748;28;20175;-75
2024/02/29 09:21:46;;;;;;;13.73;4.70;;;29.60;71.20;;;;;;5030105;28;20188;-76
2024/02/29 09:24:13;;;;;;;16.63;5.33;;;29.50;71.20;;;;;;5043825;28;20176;-74
2024/02/29 09:26:41;;;;;;;12.63;4.40;;;29.50;71.20;;;;;;5046575;28;20180;-75
2024/02/29 09:29:08;;;;;;;19.07;5.20;;;29.50;71.20;;;;;;5045450;28;20729;-75
2024/02/29 09:31:35;;;;;;;13.73;4.57;;;29.50;71.40;;;;;;5047250;28;20604;-75
2024/02/29 09:34:03;;;;;;;15.37;5.13;;;29.50;71.80;;;;;;5047107;28;20187;-74
2024/02/29 09:36:31;;;;;;;15.90;4.70;;;29.60;71.50;;;;;;5049002;28;20201;-75
2024/02/29 09:38:58;;;;;;;18.15;5.57;;;29.50;71.30;;;;;;5041353;28;20646;-74
2024/02/29 09:41:27;;;;;;;19.00;5.57;;;29.60;71.50;;;;;;5042852;28;20230;-76
2024/02/29 09:43:56;;;;;;;17.17;4.97;;;29.50;71.80;;;;;;5043539;28;20203;-74
2024/02/29 09:46:24;;;;;;;16.60;5.70;;;29.50;72.10;;;;;;5044571;28;20191;-75
2024/02/29 09:48:52;;;;;;;16.47;5.37;;;29.50;72.30;;;;;;5046749;28;20183;-73
2024/02/29 09:51:23;;;;;;;15.98;5.05;;;29.50;72.60;;;;;;5028471;28;20198;-74
2024/02/29 09:53:54;;;;;;;12.60;4.57;;;29.50;72.60;;;;;;5045576;28;20176;-74
2024/02/29 09:56:25;;;;;;;14.38;5.93;;;29.70;72.30;;;;;;5045166;28;20194;-74
2024/02/29 09:58:56;;;;;;;12.17;5.03;;;29.60;72.30;;;;;;5045439;28;20187;-77
2024/02/29 10:01:23;;;;;;;24.47;5.67;;;29.60;73.00;;;;;;5047441;28;20184;-74
2024/02/29 10:03:52;;;;;;;19.93;5.83;;;29.50;73.30;;;;;;5045255;28;20191;-76
2024/02/29 10:06:19;;;;;;;17.57;5.90;;;29.50;74.20;;;;;;5048363;28;20273;-76
2024/02/29 10:08:47;;;;;;;16.67;5.80;;;29.30;74.40;;;;;;5043263;28;20184;-76
2024/02/29 10:11:15;;;;;;;16.23;5.00;;;29.30;75.10;;;;;;5046192;28;20198;-75
2024/02/29 10:13:43;;;;;;;21.70;5.83;;;29.30;75.20;;;;;;5029637;28;20180;-75
2024/02/29 10:16:11;;;;;;;14.73;5.23;;;29.30;75.30;;;;;;5046096;28;20552;-74
2024/02/29 10:18:39;;;;;;;16.93;5.10;;;29.30;75.50;;;;;;5042364;28;20180;-74
2024/02/29 10:21:10;;;;;;;23.90;6.23;;;29.30;74.60;;;;;;5039304;28;20172;-74
2024/02/29 10:23:39;;;;;;;28.63;7.10;;;29.20;73.40;;;;;;5042344;28;20732;-74
2024/02/29 10:26:09;;;;;;;43.87;9.03;;;29.20;72.90;;;;;;5047486;28;20549;-74
2024/02/29 10:28:37;;;;;;;51.37;11.43;;;28.80;72.20;;;;;;5042286;28;20192;-77
2024/02/29 10:31:07;;;;;;;44.53;10.43;;;28.30;73.40;;;;;;5044309;28;20289;-73
2024/02/29 10:33:38;;;;;;;46.20;9.87;;;27.70;74.10;;;;;;5042494;28;20203;-75
2024/02/29 10:36:12;;;;;;;44.70;11.37;;;27.20;75.70;;;;;;5046275;28;20239;-75
2024/02/29 10:38:39;;;;;;;53.73;11.30;;;26.80;76.70;;;;;;5042809;28;20212;-78
2024/02/29 10:41:11;;;;;;;52.47;11.23;;;26.60;77.10;;;;;;5049438;28;20179;-75
2024/02/29 10:43:40;;;;;;;54.97;11.07;;;26.40;77.90;;;;;;5043873;28;20184;-73
2024/02/29 10:46:09;;;;;;;62.80;12.37;;;26.20;78.20;;;;;;5050128;28;20191;-77
2024/02/29 10:48:50;;;;;;;55.63;12.90;;;26.00;79.10;;;;;;5045243;28;20181;-76
2024/02/29 10:51:22;;;;;;;53.90;12.40;;;25.80;80.30;;;;;;5045281;28;20191;-76
2024/02/29 10:54:05;;;;;;;66.80;14.33;;;25.70;80.90;;;;;;5047882;28;20234;-76
2024/02/29 10:56:35;;;;;;;53.53;12.13;;;25.70;80.70;;;;;;5042361;28;20241;-74
2024/02/29 10:59:06;;;;;;;55.27;13.30;;;25.50;81.00;;;;;;5048249;28;20655;-79
2024/02/29 11:01:37;;;;;;;60.77;14.03;;;25.40;81.50;;;;;;5046761;28;20214;-75
2024/02/29 11:04:06;;;;;;;56.07;13.13;;;25.40;81.40;;;;;;5044752;28;20611;-75
2024/02/29 11:06:45;;;;;;;66.50;14.77;;;25.30;80.70;;;;;;5037149;28;20185;-77
2024/02/29 11:09:19;;;;;;;67.60;14.43;;;25.30;81.40;;;;;;5042059;28;20212;-74
2024/02/29 11:11:47;;;;;;;61.17;14.73;;;25.30;81.70;;;;;;5042109;28;20188;-76
2024/02/29 11:14:17;;;;;;;60.23;15.13;;;25.20;82.20;;;;;;5045067;28;20188;-72
2024/02/29 11:16:46;;;;;;;63.47;16.13;;;25.00;82.80;;;;;;5042870;28;20185;-78
2024/02/29 11:19:18;;;;;;;63.57;16.33;;;25.10;83.10;;;;;;5040235;28;20692;-74
2024/02/29 11:21:46;;;;;;;64.83;16.30;;;24.90;82.80;;;;;;5043654;28;20246;-75
2024/02/29 11:24:23;;;;;;;65.50;18.57;;;24.90;83.10;;;;;;5048368;28;20191;-75
2024/02/29 11:26:58;;;;;;;58.83;15.73;;;24.90;83.40;;;;;;5028494;28;20598;-76
2024/02/29 11:29:27;;;;;;;61.97;17.67;;;24.80;83.10;;;;;;5047354;28;20202;-71
2024/02/29 11:31:58;;;;;;;68.73;19.20;;;24.80;83.10;;;;;;5043198;28;20596;-75
2024/02/29 11:34:25;;;;;;;64.03;18.67;;;24.70;83.40;;;;;;5047743;28;20187;-74
2024/02/29 11:36:54;;;;;;;64.97;18.80;;;24.70;84.00;;;;;;5047074;28;20595;-76
2024/02/29 11:39:23;;;;;;;56.73;19.33;;;24.70;83.40;;;;;;5047574;28;20180;-74
2024/02/29 11:42:03;;;;;;;64.03;20.60;;;24.60;83.60;;;;;;5043933;28;20179;-77
2024/02/29 11:44:31;;;;;;;61.50;19.70;;;24.50;83.70;;;;;;5041724;28;20654;-75
2024/02/29 11:46:59;;;;;;;57.50;19.30;;;24.40;83.80;;;;;;5048198;28;20619;-73
2024/02/29 11:49:26;;;;;;;66.87;20.17;;;24.50;84.00;;;;;;5040524;28;20675;-74
2024/02/29 11:51:58;;;;;;;58.57;20.27;;;24.50;83.90;;;;;;5049889;28;20185;-78
2024/02/29 11:54:26;;;;;;;67.03;20.80;;;24.50;83.90;;;;;;5044280;28;20233;-75
2024/02/29 11:56:56;;;;;;;60.83;18.33;;;24.50;83.80;;;;;;5046193;28;20646;-75
2024/02/29 11:59:28;;;;;;;61.57;20.43;;;24.50;84.00;;;;;;5047735;28;20228;-73
2024/02/29 12:01:57;;;;;;;59.80;19.40;;;24.50;83.80;;;;;;5029605;28;20188;-73
2024/02/29 12:04:24;;;;;;;72.87;20.97;;;24.50;83.80;;;;;;5045547;28;20552;-74
2024/02/29 12:06:52;;;;;;;60.50;19.97;;;24.50;83.70;;;;;;5047904;28;20176;-79
2024/02/29 12:09:23;;;;;;;55.00;19.67;;;24.50;83.70;;;;;;5040583;28;20208;-73
2024/02/29 12:11:50;;;;;;;57.80;20.40;;;24.40;83.70;;;;;;5045663;28;20194;-75
2024/02/29 12:14:20;;;;;;;62.53;22.00;;;24.40;83.60;;;;;;5041260;28;20177;-75
2024/02/29 12:16:52;;;;;;;70.83;21.30;;;24.40;83.80;;;;;;5042800;28;20246;-75
2024/02/29 12:19:23;;;;;;;68.07;21.27;;;24.30;84.10;;;;;;5050354;28;20256;-75
2024/02/29 12:21:51;;;;;;;76.13;23.47;;;24.30;84.80;;;;;;5047074;28;20179;-73
2024/02/29 12:24:19;;;;;;;66.03;21.93;;;24.20;84.90;;;;;;5046901;28;20713;-73
2024/02/29 12:26:52;;;;;;;72.97;22.30;;;24.30;84.80;;;;;;5048237;28;20192;-78
2024/02/29 12:29:19;;;;;;;68.10;23.83;;;24.30;84.90;;;;;;5031042;28;20203;-77
2024/02/29 12:31:47;;;;;;;69.67;22.23;;;24.30;84.60;;;;;;5042426;28;20221;-77
2024/02/29 12:34:17;;;;;;;73.70;20.60;;;24.30;85.00;;;;;;5047280;28;20176;-75
2024/02/29 12:36:46;;;;;;;67.57;22.37;;;24.30;84.40;;;;;;5046310;28;20226;-73
2024/02/29 12:39:21;;;;;;;87.47;23.73;;;24.30;84.70;;;;;;5045064;28;20184;-75
2024/02/29 12:41:49;;;;;;;70.27;22.23;;;24.30;84.70;;;;;;5046878;28;20218;-78